Time;durP1;ratioP1;P1;durP2;ratioP2;P2;SDS_P1;SDS_P2;PMS_P1;PMS_P2;Temp;Humidity;BMP_temperature;BMP_pressure;BME280_temperature;BME280_humidity;BME280_pressure;Samples;Min_cycle;Max_cycle;Signal;HPM_P1;HPM_P2
2021/12/23 00:00:10;;;;;;;13.27;6.43;;;-1.00;99.90;;;-1.44;74.58;98398.59;174012;28;1230;-81
2021/12/23 00:00:16;;;;;;;13.29;6.40;;;-1.00;99.90;;;-1.26;74.28;98425.75;172646;28;1287;-81
2021/12/23 00:00:22;;;;;;;13.80;6.57;;;-0.90;99.90;;;-1.34;74.46;98417.41;173287;28;1272;-81
2021/12/23 00:00:28;;;;;;;14.25;6.75;;;-1.00;99.90;;;-1.22;74.51;98440.47;172605;28;1168;-81
2021/12/23 00:00:36;;;;;;;14.07;7.10;;;-1.00;99.90;;;-1.20;74.39;98443.88;172580;28;1562;-82
2021/12/23 00:00:42;;;;;;;13.55;7.05;;;-1.00;99.90;;;-1.30;74.72;98427.72;173136;28;1673;-82
2021/12/23 00:00:49;;;;;;;13.10;6.97;;;-1.00;99.90;;;-1.27;74.77;98426.66;173342;28;1286;-82
2021/12/23 00:00:57;;;;;;;14.07;6.97;;;-1.00;99.90;;;-1.35;74.70;98419.19;170470;28;1712;-82
2021/12/23 00:01:03;;;;;;;14.63;6.96;;;-1.00;99.90;;;-1.23;74.60;98432.59;170688;28;1035;-81
2021/12/23 00:01:10;;;;;;;14.90;7.00;;;-1.00;99.90;;;-1.27;74.26;98425.81;171842;28;1592;-81
2021/12/23 00:01:16;;;;;;;16.13;7.37;;;-1.00;99.90;;;-1.23;74.68;98430.81;173926;28;1604;-81
2021/12/23 00:01:21;;;;;;;15.27;7.65;;;-1.00;99.90;;;-1.30;74.19;98418.94;172646;28;1026;-82
2021/12/23 00:01:29;;;;;;;14.77;7.72;;;-1.00;99.90;;;-1.17;74.50;98446.31;173276;28;1357;-81
2021/12/23 00:01:35;;;;;;;15.90;7.70;;;-1.00;99.90;;;-1.34;74.56;98415.59;173853;28;1627;-81
2021/12/23 00:01:43;;;;;;;15.75;7.57;;;-1.00;99.90;;;-1.34;74.72;98412.13;172566;28;1310;-81
2021/12/23 00:01:49;;;;;;;15.58;7.10;;;-1.00;99.90;;;-1.26;74.25;98425.75;172581;28;1223;-81
2021/12/23 00:01:55;;;;;;;16.35;6.85;;;-1.00;99.90;;;-1.21;74.35;98438.66;171224;28;1194;-81
2021/12/23 00:02:01;;;;;;;15.88;6.63;;;-1.00;99.90;;;-1.25;74.28;98427.44;173431;28;986;-81
2021/12/23 00:02:07;;;;;;;15.40;6.77;;;-1.00;99.90;;;-1.25;74.48;98427.44;173351;28;1031;-82
2021/12/23 00:02:13;;;;;;;16.83;6.82;;;-1.00;99.90;;;-1.24;74.49;98430.94;173140;28;1524;-79
2021/12/23 00:02:19;;;;;;;15.95;7.00;;;-1.00;99.90;;;-1.26;74.24;98428.38;171927;28;1251;-82
2021/12/23 00:02:25;;;;;;;16.48;6.95;;;-1.00;99.90;;;-1.20;74.55;98433.31;172523;28;1235;-81
2021/12/23 00:02:31;;;;;;;16.38;6.97;;;-1.00;99.90;;;-1.40;74.35;98401.94;173237;28;1672;-81
2021/12/23 00:02:38;;;;;;;16.38;6.88;;;-1.00;99.90;;;-1.35;74.02;98416.53;171259;28;872;-82
2021/12/23 00:02:45;;;;;;;15.52;7.00;;;-1.00;99.90;;;-1.26;74.03;98425.75;171870;28;1342;-81
2021/12/23 00:02:50;;;;;;;15.43;6.95;;;-1.00;99.90;;;-1.35;73.96;98405.16;172658;28;1432;-81
2021/12/23 00:02:56;;;;;;;15.57;7.03;;;-0.90;99.90;;;-1.17;74.37;98441.03;172623;28;1287;-82
2021/12/23 00:03:04;;;;;;;15.98;7.22;;;-1.00;99.90;;;-1.23;74.22;98427.31;171960;28;1181;-82
2021/12/23 00:03:10;;;;;;;16.03;7.23;;;-1.00;99.90;;;-1.28;74.26;98417.03;172119;28;1054;-81
2021/12/23 00:03:16;;;;;;;16.63;7.40;;;-0.90;99.90;;;-1.32;74.58;98421.66;171911;28;1231;-82
2021/12/23 00:03:22;;;;;;;16.10;7.33;;;-1.00;99.90;;;-1.25;74.61;98424.81;172727;28;970;-82
2021/12/23 00:03:28;;;;;;;16.08;7.48;;;-0.90;99.90;;;-1.38;74.44;98400.91;172692;28;926;-81
2021/12/23 00:03:34;;;;;;;17.80;7.60;;;-1.00;99.90;;;-1.37;74.12;98412.31;171824;28;1203;-81
2021/12/23 00:03:40;;;;;;;17.50;7.70;;;-1.00;99.90;;;-1.20;74.07;98432.44;172614;28;1272;-82
2021/12/23 00:03:46;;;;;;;16.60;7.50;;;-1.00;99.90;;;-1.26;74.42;98420.44;174059;28;907;-79
2021/12/23 00:03:52;;;;;;;16.13;7.30;;;-1.00;99.90;;;-1.17;74.02;98432.25;172667;28;955;-82
2021/12/23 00:03:58;;;;;;;16.08;7.20;;;-1.00;99.90;;;-1.19;74.03;98431.50;173296;28;1412;-80
2021/12/23 00:04:05;;;;;;;14.97;6.97;;;-1.00;99.90;;;-1.26;74.21;98424.88;173247;28;1573;-81
2021/12/23 00:04:12;;;;;;;15.37;7.03;;;-1.00;99.90;;;-1.23;74.32;98436.09;171494;28;1616;-82
2021/12/23 00:04:18;;;;;;;16.20;7.33;;;-1.00;99.90;;;-1.34;74.20;98407.69;172497;28;1658;-81
2021/12/23 00:04:24;;;;;;;18.50;7.80;;;-1.00;99.90;;;-1.25;74.63;98421.31;171891;28;1403;-81
2021/12/23 00:04:30;;;;;;;17.87;7.73;;;-1.00;99.90;;;-1.30;74.20;98411.88;171992;28;812;-81
2021/12/23 00:04:36;;;;;;;16.75;7.65;;;-1.00;99.90;;;-1.20;74.24;98429.81;171943;28;1311;-82
2021/12/23 00:04:42;;;;;;;17.77;7.57;;;-1.00;99.90;;;-1.24;74.54;98428.28;173484;28;1108;-81
2021/12/23 00:04:48;;;;;;;18.75;7.68;;;-1.00;99.90;;;-1.21;74.24;98436.88;173372;28;1312;-81
2021/12/23 00:04:54;;;;;;;16.73;7.47;;;-1.00;99.90;;;-1.21;74.17;98436.03;172589;28;1288;-82
2021/12/23 00:04:59;;;;;;;17.48;7.63;;;-1.00;99.90;;;-1.27;74.34;98421.38;173281;28;1219;-81
2021/12/23 00:05:09;;;;;;;17.73;7.57;;;-1.00;99.90;;;-1.27;74.31;98421.38;173945;28;1217;-82
2021/12/23 00:05:15;;;;;;;16.31;7.11;;;-1.00;99.90;;;-1.25;74.30;98430.09;172510;28;1337;-82
2021/12/23 00:05:21;;;;;;;15.43;6.80;;;-1.00;99.90;;;-1.27;74.54;98424.03;171988;28;1002;-82
2021/12/23 00:05:27;;;;;;;15.13;6.68;;;-1.00;99.90;;;-1.21;74.44;98425.47;173930;28;1298;-82
2021/12/23 00:05:33;;;;;;;15.02;6.78;;;-1.00;99.90;;;-1.32;74.36;98419.03;173245;28;1588;-81
2021/12/23 00:05:39;;;;;;;15.83;6.90;;;-1.00;99.90;;;-1.48;74.72;98383.91;171938;28;1304;-81
2021/12/23 00:05:45;;;;;;;16.23;7.28;;;-1.00;99.90;;;-1.40;74.30;98401.94;173257;28;1539;-81
2021/12/23 00:05:53;;;;;;;16.63;7.37;;;-1.00;99.90;;;-1.29;74.35;98423.25;173395;28;932;-82
2021/12/23 00:06:00;;;;;;;16.30;7.57;;;-1.00;99.90;;;-1.36;74.78;98414.00;173300;28;926;-81
2021/12/23 00:06:06;;;;;;;15.94;7.46;;;-1.00;99.90;;;-1.31;75.01;98418.09;172581;28;1347;-82
2021/12/23 00:06:12;;;;;;;14.65;7.53;;;-1.00;99.90;;;-1.30;74.61;98429.50;171584;28;1371;-82
2021/12/23 00:06:18;;;;;;;14.38;7.55;;;-1.00;99.90;;;-1.28;74.87;98424.97;171996;28;967;-80
2021/12/23 00:06:24;;;;;;;14.50;7.50;;;-1.00;99.90;;;-1.29;75.01;98421.47;170644;29;991;-81
2021/12/23 00:06:30;;;;;;;14.32;7.35;;;-1.00;99.90;;;-1.49;75.00;98381.34;172681;28;899;-81
2021/12/23 00:06:36;;;;;;;15.23;7.47;;;-1.00;99.90;;;-1.33;74.58;98419.09;173409;28;1048;-81
2021/12/23 00:06:44;;;;;;;15.88;7.70;;;-1.00;99.90;;;-1.38;74.79;98402.69;172539;28;1494;-81
2021/12/23 00:06:50;;;;;;;17.18;7.80;;;-1.00;99.90;;;-1.31;74.82;98417.22;171864;28;1540;-82
2021/12/23 00:06:56;;;;;;;17.48;7.93;;;-1.00;99.90;;;-1.33;74.81;98419.09;172587;28;1212;-81
2021/12/23 00:07:02;;;;;;;16.17;7.88;;;-1.00;99.90;;;-1.39;75.05;98408.91;171881;28;1281;-80
2021/12/23 00:07:08;;;;;;;16.48;7.88;;;-1.00;99.90;;;-1.41;75.24;98401.09;173306;28;1347;-81
2021/12/23 00:07:14;;;;;;;15.98;7.50;;;-1.00;99.90;;;-1.44;74.93;98400.41;172647;28;1010;-81
2021/12/23 00:07:20;;;;;;;15.02;7.47;;;-1.00;99.90;;;-1.38;74.86;98413.25;172022;28;904;-81
2021/12/23 00:07:26;;;;;;;15.13;7.32;;;-1.00;99.90;;;-1.37;74.95;98414.94;172572;28;1345;-81
2021/12/23 00:07:32;;;;;;;15.30;7.32;;;-1.00;99.90;;;-1.48;74.87;98390.97;174017;28;1310;-81
2021/12/23 00:07:38;;;;;;;16.85;7.40;;;-1.00;99.90;;;-1.35;75.28;98416.53;173394;28;966;-81
2021/12/23 00:07:44;;;;;;;16.83;7.57;;;-1.10;99.90;;;-1.42;75.16;98399.38;171414;28;884;-81
2021/12/23 00:07:50;;;;;;;16.88;7.60;;;-1.00;99.90;;;-1.49;75.09;98391.91;173312;28;1343;-82
2021/12/23 00:07:56;;;;;;;17.13;7.78;;;-1.10;99.90;;;-1.49;75.04;98387.47;173379;28;817;-82
2021/12/23 00:08:02;;;;;;;17.90;7.95;;;-1.00;99.90;;;-1.39;75.14;98409.75;173291;28;1308;-82
2021/12/23 00:08:09;;;;;;;16.96;7.98;;;-1.00;99.90;;;-1.33;75.04;98408.53;172489;28;1580;-82
2021/12/23 00:08:15;;;;;;;17.77;7.90;;;-1.00;99.90;;;-1.37;75.09;98407.03;173199;28;1659;-82
2021/12/23 00:08:22;;;;;;;19.27;7.90;;;-1.00;99.90;;;-1.40;74.94;98401.94;172690;28;852;-82
2021/12/23 00:08:28;;;;;;;18.18;7.68;;;-1.10;99.90;;;-1.32;75.51;98415.53;171936;28;1424;-81
2021/12/23 00:08:34;;;;;;;16.80;7.25;;;-1.10;99.90;;;-1.38;75.42;98410.59;173207;28;1184;-80
2021/12/23 00:08:39;;;;;;;16.55;7.30;;;-1.00;99.90;;;-1.32;75.27;98416.38;173288;28;1207;-81
2021/12/23 00:08:45;;;;;;;15.15;7.20;;;-1.10;99.90;;;-1.62;75.37;98364.53;172635;28;1301;-82
2021/12/23 00:08:52;;;;;;;14.18;7.30;;;-1.00;99.90;;;-1.40;75.20;98404.59;173929;28;1287;-82
2021/12/23 00:09:00;;;;;;;14.23;7.30;;;-1.10;99.90;;;-1.40;75.27;98404.59;174038;28;836;-82
2021/12/23 00:09:07;;;;;;;14.18;7.28;;;-1.10;99.90;;;-1.62;75.18;98368.03;172541;28;1113;-82
2021/12/23 00:09:13;;;;;;;14.60;7.43;;;-1.00;99.90;;;-1.38;75.42;98402.69;171242;28;1346;-81
2021/12/23 00:09:20;;;;;;;13.03;7.07;;;-1.10;99.90;;;-1.45;75.14;98390.81;173298;28;860;-80
2021/12/23 00:09:46;;;;;;;12.58;7.08;;;-1.10;99.90;;;-1.42;75.56;98401.16;173103;28;1549;-82
2021/12/23 00:10:13;;;;;;;12.14;6.78;;;-1.00;99.90;;;-1.39;74.85;98404.47;173932;28;1512;-81
2021/12/23 00:10:18;;;;;;;14.51;6.53;;;-1.10;99.90;;;-1.38;75.03;98400.91;172396;28;1251;-80
2021/12/23 00:10:24;;;;;;;19.13;7.13;;;-1.10;99.90;;;-1.44;75.40;98389.84;171341;28;849;-81
2021/12/23 00:10:30;;;;;;;17.67;7.15;;;-1.10;99.90;;;-1.36;75.03;98406.94;171365;28;1346;-82
2021/12/23 00:10:36;;;;;;;16.70;7.20;;;-1.10;99.90;;;-1.34;74.96;98409.47;173177;28;1334;-82
2021/12/23 00:10:42;;;;;;;15.15;7.28;;;-1.10;99.90;;;-1.46;75.30;98392.59;173107;28;1650;-82
2021/12/23 00:10:48;;;;;;;14.27;7.45;;;-1.10;99.90;;;-1.37;75.35;98404.38;171260;28;1446;-82
2021/12/23 00:10:54;;;;;;;14.13;7.73;;;-1.10;99.90;;;-1.39;75.08;98398.34;171976;28;944;-81
2021/12/23 00:11:00;;;;;;;14.55;8.00;;;-1.10;99.90;;;-1.48;75.18;98383.91;172693;28;931;-82
2021/12/23 00:11:06;;;;;;;15.68;8.25;;;-1.10;99.90;;;-1.40;75.27;98392.19;172728;28;967;-81
2021/12/23 00:11:12;;;;;;;15.77;8.43;;;-1.10;99.90;;;-1.42;75.34;98393.25;172683;28;1018;-81
2021/12/23 00:11:18;;;;;;;15.65;8.30;;;-1.10;99.90;;;-1.44;75.29;98398.59;171302;28;924;-82
2021/12/23 00:11:24;;;;;;;15.83;7.90;;;-1.10;99.90;;;-1.38;75.30;98400.03;172010;28;995;-81
2021/12/23 00:11:31;;;;;;;15.80;7.57;;;-1.10;99.90;;;-1.45;74.93;98382.88;171950;28;1252;-82
2021/12/23 00:11:38;;;;;;;16.10;7.10;;;-1.10;99.90;;;-1.46;75.07;98384.66;171905;28;1288;-81
2021/12/23 00:11:44;;;;;;;17.38;6.93;;;-1.10;99.90;;;-1.32;75.35;98412.88;172912;28;1509;-81
2021/12/23 00:11:50;;;;;;;18.95;7.10;;;-1.10;99.90;;;-1.32;75.31;98407.59;173213;28;1322;-81
2021/12/23 00:11:56;;;;;;;20.30;7.20;;;-1.10;99.90;;;-1.41;75.16;98395.81;173221;28;1658;-81
2021/12/23 00:12:02;;;;;;;19.77;7.10;;;-1.10;99.90;;;-1.35;74.92;98402.53;172693;28;1319;-82
2021/12/23 00:12:08;;;;;;;17.73;7.20;;;-1.10;99.90;;;-1.36;74.86;98408.72;173377;28;951;-81
2021/12/23 00:12:16;;;;;;;16.00;7.26;;;-1.10;99.90;;;-1.41;75.34;98392.31;173323;28;1033;-82
2021/12/23 00:12:22;;;;;;;14.23;7.02;;;-1.10;99.90;;;-1.38;75.06;98395.63;171847;28;1321;-81
2021/12/23 00:12:28;;;;;;;13.50;7.05;;;-1.10;99.90;;;-1.45;74.75;98390.81;171916;28;1216;-82
2021/12/23 00:12:42;;;;;;;14.02;6.95;;;-1.10;99.90;;;-1.42;74.98;98398.53;173177;28;1347;-81
2021/12/23 00:12:48;;;;;;;15.59;6.81;;;-1.10;99.90;;;-1.35;75.05;98405.97;172492;28;1645;-81
2021/12/23 00:12:54;;;;;;;16.35;6.90;;;-1.10;99.90;;;-1.35;74.69;98403.34;173266;28;1202;-80
2021/12/23 00:13:00;;;;;;;16.37;6.90;;;-1.10;99.90;;;-1.40;74.88;98401.94;174062;28;1085;-82
2021/12/23 00:13:07;;;;;;;17.13;6.97;;;-1.10;99.90;;;-1.38;74.75;98410.59;171444;28;2311;-79
2021/12/23 00:13:14;;;;;;;15.73;7.07;;;-1.10;99.90;;;-1.43;74.41;98395.03;171157;28;1292;-79
2021/12/23 00:13:21;;;;;;;17.67;7.27;;;-1.10;99.90;;;-1.37;74.33;98401.75;172599;28;1452;-82
2021/12/23 00:13:27;;;;;;;17.93;7.30;;;-1.10;99.90;;;-1.37;74.33;98399.97;173211;28;1326;-81
2021/12/23 00:13:35;;;;;;;17.67;7.50;;;-1.10;99.90;;;-1.40;74.48;98402.75;172729;28;1000;-82
2021/12/23 00:13:50;;;;;;;14.87;7.20;;;-1.10;99.90;;;-1.34;74.73;98401.56;171921;28;856;-80
2021/12/23 00:14:09;;;;;;;14.40;7.04;;;-1.10;99.90;;;-1.39;74.44;98395.69;172523;28;2892;-81
2021/12/23 00:14:16;;;;;;;15.73;6.91;;;-1.10;99.90;;;-1.32;74.92;98402.31;172658;28;1232;-81
2021/12/23 00:14:22;;;;;;;17.50;7.17;;;-1.10;99.90;;;-1.36;74.75;98399.03;174063;28;844;-82
2021/12/23 00:14:28;;;;;;;18.40;7.40;;;-1.10;99.90;;;-1.38;74.54;98392.13;172005;28;927;-80
2021/12/23 00:14:34;;;;;;;17.97;7.30;;;-1.10;99.90;;;-1.35;74.95;98399.88;171896;28;1034;-81
2021/12/23 00:14:40;;;;;;;18.03;7.07;;;-1.10;99.90;;;-1.54;74.38;98370.19;172543;28;1366;-81
2021/12/23 00:14:48;;;;;;;17.88;7.32;;;-1.10;99.90;;;-1.31;74.81;98412.81;171962;28;1011;-82
2021/12/23 00:14:55;;;;;;;16.48;7.17;;;-1.10;99.90;;;-1.38;74.49;98394.75;171305;28;1426;-81
2021/12/23 00:15:03;;;;;;;14.80;7.12;;;-1.10;99.90;;;-1.30;74.84;98411.00;171342;28;911;-81
2021/12/23 00:15:36;;;;;;;14.53;7.17;;;-1.10;99.90;;;-1.35;74.86;98397.25;172579;28;1446;-82
2021/12/23 00:16:03;;;;;;;12.06;7.04;;;-1.10;99.90;;;-1.35;74.36;98395.41;171323;28;1230;-81
2021/12/23 00:16:17;;;;;;;14.93;7.46;;;-1.10;99.90;;;-1.29;74.26;98413.53;172559;28;1294;-81
2021/12/23 00:16:40;;;;;;;16.61;7.78;;;-1.10;99.90;;;-1.34;74.70;98393.63;172651;28;1206;-81
2021/12/23 00:16:49;;;;;;;14.69;7.20;;;-1.10;99.90;;;-1.32;74.56;98402.31;171900;28;1249;-82
2021/12/23 00:17:16;;;;;;;12.41;6.67;;;-1.10;99.90;;;-1.34;74.41;98396.28;171976;28;1017;-82
2021/12/23 00:17:52;;;;;;;14.38;7.40;;;-1.10;99.90;;;-1.37;74.89;98396.47;172002;28;738;-82
2021/12/23 00:17:57;;;;;;;16.14;7.26;;;-1.10;99.90;;;-1.36;74.73;98403.44;170683;28;1393;-81
2021/12/23 00:18:47;;;;;;;15.01;6.97;;;-1.10;99.90;;;-1.30;74.26;98416.31;171995;28;1210;-82
2021/12/23 00:19:00;;;;;;;16.64;7.24;;;-1.10;99.90;;;-1.33;74.39;98403.25;172622;28;1248;-81
2021/12/23 00:19:19;;;;;;;18.13;7.34;;;-1.10;99.90;;;-1.68;74.24;98338.50;172230;28;1302;-82
2021/12/23 00:19:37;;;;;;;15.93;7.70;;;-1.10;99.90;;;-1.28;74.29;98414.41;170660;29;1027;-81
2021/12/23 00:19:58;;;;;;;15.17;8.03;;;-1.10;99.90;;;-1.37;74.62;98397.31;170663;29;920;-81
2021/12/23 00:23:28;;;;;;;18.90;8.25;;;-1.10;99.90;;;-1.41;75.36;98387.03;172598;28;857;-81
2021/12/23 00:23:34;;;;;;;19.83;8.07;;;-1.20;99.90;;;-1.40;75.38;98392.19;172782;28;917;-81
2021/12/23 00:23:43;;;;;;;18.88;7.75;;;-1.20;99.90;;;-1.47;75.16;98379.47;171167;28;1209;-81
2021/12/23 00:23:49;;;;;;;18.40;7.40;;;-1.10;99.90;;;-1.49;75.09;98376.91;171238;28;1383;-81
2021/12/23 00:23:58;;;;;;;15.70;7.07;;;-1.20;99.90;;;-1.52;75.12;98371.81;172055;28;973;-82
2021/12/23 00:24:04;;;;;;;13.93;6.59;;;-1.20;99.90;;;-1.47;75.26;98379.47;171887;28;1194;-81
2021/12/23 00:24:10;;;;;;;13.22;6.64;;;-1.20;99.90;;;-1.52;75.14;98377.09;170687;29;877;-82
2021/12/23 00:24:16;;;;;;;12.40;6.57;;;-1.20;99.90;;;-1.66;75.06;98347.19;171969;28;1009;-82
2021/12/23 00:24:22;;;;;;;13.98;6.72;;;-1.20;99.90;;;-1.52;75.29;98376.25;172596;28;1480;-82
2021/12/23 00:24:28;;;;;;;15.85;7.07;;;-1.20;99.90;;;-1.49;75.27;98386.63;172643;28;1112;-81
2021/12/23 00:24:34;;;;;;;16.90;7.18;;;-1.20;99.90;;;-1.52;75.30;98376.25;171897;28;1281;-82
2021/12/23 00:24:41;;;;;;;16.97;7.13;;;-1.20;99.90;;;-1.50;75.30;98383.13;173241;28;1466;-82
2021/12/23 00:24:48;;;;;;;17.25;7.10;;;-1.20;99.90;;;-1.52;75.34;98382.38;173255;28;1241;-81
2021/12/23 00:24:54;;;;;;;16.68;7.10;;;-1.20;99.90;;;-1.55;75.06;98373.78;171888;28;1520;-82
2021/12/23 00:25:00;;;;;;;16.73;7.10;;;-1.20;99.90;;;-1.47;75.32;98390.03;172594;28;1354;-82
2021/12/23 00:25:06;;;;;;;16.55;7.32;;;-1.20;99.90;;;-1.50;75.35;98377.84;172624;28;1338;-82
2021/12/23 00:25:12;;;;;;;17.23;7.67;;;-1.20;99.90;;;-1.47;75.29;98384.75;172137;28;1097;-82
2021/12/23 00:25:19;;;;;;;16.63;7.60;;;-1.20;99.90;;;-1.55;75.02;98371.97;171935;28;1368;-81
2021/12/23 00:25:25;;;;;;;15.34;7.34;;;-1.20;99.90;;;-1.55;75.29;98379.06;171981;28;963;-82
2021/12/23 00:25:31;;;;;;;15.90;7.32;;;-1.20;99.90;;;-1.57;75.10;98373.88;173241;28;1295;-82
2021/12/23 00:25:37;;;;;;;15.93;7.13;;;-1.20;99.90;;;-1.64;75.34;98367.25;171138;28;1205;-81
2021/12/23 00:25:43;;;;;;;15.20;6.95;;;-1.20;99.90;;;-1.59;75.05;98365.19;171890;28;1265;-81
2021/12/23 00:25:52;;;;;;;16.25;7.15;;;-1.20;99.90;;;-1.60;75.16;98371.41;173243;28;1650;-81
2021/12/23 00:26:03;;;;;;;17.13;7.33;;;-1.20;99.90;;;-1.62;75.16;98370.66;173263;28;1442;-82
2021/12/23 00:26:09;;;;;;;16.00;7.13;;;-1.20;99.90;;;-1.64;74.98;98369.03;172024;28;1139;-81
2021/12/23 00:26:15;;;;;;;17.67;7.10;;;-1.20;99.90;;;-1.57;75.15;98380.94;172660;28;974;-82
2021/12/23 00:26:21;;;;;;;17.90;7.22;;;-1.20;99.90;;;-1.65;75.00;98364.69;172650;28;1109;-82
2021/12/23 00:26:28;;;;;;;17.42;7.40;;;-1.20;99.90;;;-1.55;75.40;98385.19;173243;28;1224;-81
2021/12/23 00:26:34;;;;;;;17.57;7.23;;;-1.30;99.90;;;-1.86;75.12;98328.06;171920;28;856;-81
2021/12/23 00:26:40;;;;;;;17.02;7.35;;;-1.20;99.90;;;-1.57;75.26;98375.66;172555;28;1396;-82
2021/12/23 00:26:46;;;;;;;17.00;7.50;;;-1.30;99.90;;;-1.54;75.10;98391.31;173321;28;1420;-82
2021/12/23 00:26:52;;;;;;;17.33;7.43;;;-1.30;99.90;;;-1.63;75.24;98371.59;174026;28;880;-82
2021/12/23 00:26:58;;;;;;;16.40;7.18;;;-1.30;99.90;;;-1.51;75.41;98381.44;171957;28;1335;-80
2021/12/23 00:27:05;;;;;;;15.80;7.15;;;-1.30;99.90;;;-1.56;75.24;98388.78;173346;28;967;-82
2021/12/23 00:27:12;;;;;;;14.74;7.22;;;-1.30;99.90;;;-1.59;75.09;98374.91;171854;28;1430;-82
2021/12/23 00:27:18;;;;;;;15.13;7.23;;;-1.30;99.90;;;-1.53;75.24;98379.81;173321;28;1496;-84
2021/12/23 00:27:24;;;;;;;14.47;7.23;;;-1.30;99.90;;;-1.59;74.74;98372.25;173351;28;1294;-82
2021/12/23 00:27:30;;;;;;;15.18;7.15;;;-1.30;99.90;;;-1.58;75.14;98373.97;172652;28;1263;-82
2021/12/23 00:27:36;;;;;;;16.27;6.97;;;-1.30;99.90;;;-1.61;75.11;98372.38;171238;28;841;-81
2021/12/23 00:27:42;;;;;;;17.95;6.93;;;-1.30;99.90;;;-1.63;74.91;98374.25;173233;28;1203;-82
2021/12/23 00:27:48;;;;;;;17.63;6.93;;;-1.30;99.90;;;-1.54;74.97;98378.97;173090;28;1686;-80
2021/12/23 00:27:54;;;;;;;18.00;6.85;;;-1.30;99.90;;;-1.71;74.63;98355.38;172575;28;1722;-81
2021/12/23 00:28:00;;;;;;;17.77;7.30;;;-1.30;99.90;;;-1.58;75.14;98371.31;170711;29;1015;-81
2021/12/23 00:28:06;;;;;;;17.98;7.63;;;-1.30;99.90;;;-1.54;74.59;98383.41;171805;28;1801;-81
2021/12/23 00:28:12;;;;;;;16.38;7.50;;;-1.30;99.90;;;-1.60;74.79;98370.56;171894;28;829;-82
2021/12/23 00:28:19;;;;;;;16.95;7.50;;;-1.30;99.90;;;-1.59;74.99;98377.53;172527;28;1199;-81
2021/12/23 00:28:25;;;;;;;19.04;7.72;;;-1.30;99.90;;;-1.62;74.97;98370.66;173215;28;1336;-82
2021/12/23 00:28:31;;;;;;;18.97;7.43;;;-1.30;99.90;;;-1.69;74.73;98363.19;172516;28;1434;-81
2021/12/23 00:28:38;;;;;;;17.57;7.33;;;-1.30;99.90;;;-1.62;74.63;98369.81;171208;28;1480;-81
2021/12/23 00:28:43;;;;;;;17.60;7.28;;;-1.30;99.90;;;-1.60;75.03;98378.47;172558;28;1481;-81
2021/12/23 00:28:49;;;;;;;15.25;7.15;;;-1.30;99.90;;;-1.59;75.00;98388.09;172629;28;828;-81
2021/12/23 00:28:57;;;;;;;11.40;6.57;;;-1.30;99.90;;;-1.57;74.86;98381.81;171270;28;1264;-82
2021/12/23 00:29:03;;;;;;;11.27;6.43;;;-1.30;99.90;;;-1.66;74.88;98377.06;172024;28;871;-81
2021/12/23 00:29:09;;;;;;;10.97;6.30;;;-1.30;99.90;;;-1.68;75.21;98365.75;171227;28;1401;-82
2021/12/23 00:29:14;;;;;;;11.13;6.27;;;-1.30;99.90;;;-1.63;75.22;98376.88;172607;28;1210;-82
2021/12/23 00:29:20;;;;;;;12.27;6.38;;;-1.30;99.90;;;-1.64;74.86;98369.03;173264;28;1190;-82
2021/12/23 00:29:26;;;;;;;13.10;6.68;;;-1.30;99.90;;;-1.72;75.15;98362.44;171838;28;1196;-81
2021/12/23 00:29:33;;;;;;;13.00;6.90;;;-1.30;99.90;;;-1.57;75.12;98391.50;171888;28;1545;-82
2021/12/23 00:29:39;;;;;;;14.72;7.26;;;-1.30;99.90;;;-1.61;75.59;98382.06;171854;28;1366;-81
2021/12/23 00:29:45;;;;;;;16.60;7.55;;;-1.30;99.90;;;-1.67;75.02;98375.38;171174;28;1311;-81
2021/12/23 00:29:51;;;;;;;15.48;7.40;;;-1.30;99.90;;;-1.65;75.31;98372.63;171879;28;781;-82
2021/12/23 00:29:57;;;;;;;15.82;7.32;;;-1.30;99.90;;;-1.57;75.10;98386.22;171884;28;1188;-82
2021/12/23 00:30:05;;;;;;;15.85;7.00;;;-1.30;99.90;;;-1.85;74.96;98348.25;170571;29;1199;-80
2021/12/23 00:30:11;;;;;;;16.84;7.12;;;-1.30;99.90;;;-1.59;74.67;98380.19;169970;29;1646;-82
2021/12/23 00:30:17;;;;;;;18.74;7.38;;;-1.30;99.90;;;-1.54;75.00;98396.59;171272;28;1063;-81
2021/12/23 00:30:23;;;;;;;19.25;7.75;;;-1.30;99.90;;;-1.61;74.95;98374.16;172065;28;1042;-80
2021/12/23 00:30:29;;;;;;;19.73;7.68;;;-1.30;99.90;;;-1.64;75.03;98375.16;171923;28;1579;-82
2021/12/23 00:30:35;;;;;;;20.00;7.87;;;-1.40;99.90;;;-1.71;74.93;98356.19;171989;28;943;-82
2021/12/23 00:30:42;;;;;;;18.48;7.45;;;-1.30;99.90;;;-1.63;74.83;98368.09;171270;28;970;-82
2021/12/23 00:30:47;;;;;;;15.63;7.20;;;-1.40;99.90;;;-1.53;75.03;98393.88;172792;28;1559;-81
2021/12/23 00:30:54;;;;;;;15.70;7.13;;;-1.40;99.90;;;-1.53;75.00;98385.97;172024;28;856;-81
2021/12/23 00:31:02;;;;;;;15.92;7.40;;;-1.30;99.90;;;-1.55;75.18;98384.34;172633;28;947;-85
2021/12/23 00:31:08;;;;;;;16.15;7.48;;;-1.40;99.90;;;-1.54;74.88;98389.53;172693;28;1058;-80
2021/12/23 00:31:16;;;;;;;17.08;7.68;;;-1.30;99.90;;;-1.56;75.15;98386.16;172673;28;979;-82
2021/12/23 00:31:22;;;;;;;18.17;7.87;;;-1.30;99.90;;;-1.54;75.04;98380.75;172699;28;978;-82
2021/12/23 00:31:28;;;;;;;17.13;7.70;;;-1.30;99.90;;;-1.52;75.04;98392.94;173315;28;915;-82
2021/12/23 00:31:33;;;;;;;18.23;7.72;;;-1.30;99.90;;;-1.68;75.04;98363.09;173341;28;1380;-82
2021/12/23 00:31:39;;;;;;;16.63;7.68;;;-1.30;99.90;;;-1.72;75.13;98367.72;173970;28;1301;-81
2021/12/23 00:31:45;;;;;;;21.73;7.97;;;-1.30;99.90;;;-1.69;74.85;98366.69;173362;28;851;-82
2021/12/23 00:31:51;;;;;;;21.70;7.80;;;-1.30;99.90;;;-1.67;74.80;98363.94;172680;28;1042;-82
2021/12/23 00:31:58;;;;;;;22.07;7.87;;;-1.30;99.90;;;-1.54;74.71;98388.69;172580;28;1323;-81
2021/12/23 00:32:07;;;;;;;20.47;7.77;;;-1.30;99.90;;;-1.62;74.83;98377.72;171244;28;1306;-81
2021/12/23 00:32:13;;;;;;;16.57;7.07;;;-1.40;99.90;;;-1.62;75.04;98381.22;171799;28;1562;-80
2021/12/23 00:32:19;;;;;;;16.25;6.97;;;-1.30;99.90;;;-1.64;75.11;98372.53;171881;28;1329;-81
2021/12/23 00:32:25;;;;;;;15.50;6.80;;;-1.30;99.90;;;-1.76;74.80;98358.25;171248;28;1304;-82
2021/12/23 00:32:31;;;;;;;16.40;7.15;;;-1.30;99.90;;;-1.74;74.98;98364.31;171921;28;1216;-82
2021/12/23 00:32:37;;;;;;;15.77;7.03;;;-1.30;99.90;;;-1.63;74.94;98386.59;171888;28;1336;-82
2021/12/23 00:32:43;;;;;;;15.90;7.40;;;-1.30;99.90;;;-1.72;75.19;98366.88;172008;28;1038;-81
2021/12/23 00:32:49;;;;;;;15.90;7.65;;;-1.40;99.90;;;-1.59;74.92;98388.09;173193;28;1825;-82
2021/12/23 00:32:57;;;;;;;17.33;8.32;;;-1.30;99.90;;;-1.60;74.92;98389.03;171280;28;967;-82
2021/12/23 00:33:03;;;;;;;16.33;8.20;;;-1.40;99.90;;;-2.04;74.73;98318.59;172610;28;939;-81
2021/12/23 00:33:09;;;;;;;15.57;8.13;;;-1.30;99.90;;;-1.82;74.62;98355.16;170555;28;1166;-78
2021/12/23 00:33:15;;;;;;;13.32;7.57;;;-1.40;99.90;;;-1.67;75.01;98378.00;172057;28;943;-82
2021/12/23 00:33:22;;;;;;;12.10;6.93;;;-1.40;99.90;;;-1.64;75.15;98387.53;173398;28;942;-81
2021/12/23 00:33:29;;;;;;;10.46;6.28;;;-1.40;99.90;;;-1.72;74.97;98373.00;171226;28;1546;-82
2021/12/23 00:33:39;;;;;;;10.88;6.48;;;-1.40;99.90;;;-1.66;75.24;98385.00;171838;28;1396;-82
2021/12/23 00:33:45;;;;;;;12.88;6.99;;;-1.40;99.90;;;-1.71;75.17;98372.03;173279;28;1514;-82
2021/12/23 00:33:51;;;;;;;13.80;7.33;;;-1.40;99.90;;;-1.59;75.32;98393.38;172606;28;1473;-82
2021/12/23 00:33:57;;;;;;;16.05;7.72;;;-1.40;99.90;;;-1.59;75.33;98394.22;171876;28;1213;-81
2021/12/23 00:34:03;;;;;;;17.17;7.57;;;-1.40;99.90;;;-1.99;75.31;98329.75;173211;28;1254;-80
2021/12/23 00:34:10;;;;;;;17.90;7.18;;;-1.40;99.90;;;-1.68;75.25;98371.03;172525;28;1238;-81
2021/12/23 00:34:16;;;;;;;18.04;7.20;;;-1.40;99.90;;;-1.90;75.13;98339.75;171790;28;1461;-82
2021/12/23 00:34:22;;;;;;;18.50;6.93;;;-1.40;99.90;;;-1.81;75.07;98349.75;171407;28;959;-82
2021/12/23 00:34:28;;;;;;;16.05;6.55;;;-1.40;99.90;;;-1.67;75.06;98377.16;171878;28;1520;-81
2021/12/23 00:34:36;;;;;;;14.80;6.47;;;-1.40;99.90;;;-1.75;74.99;98365.25;172676;28;828;-82
2021/12/23 00:34:42;;;;;;;13.25;6.15;;;-1.40;99.90;;;-1.66;74.70;98377.06;172538;28;1322;-81
2021/12/23 00:34:48;;;;;;;12.85;6.38;;;-1.40;99.90;;;-1.67;74.70;98379.78;172610;28;1342;-82
2021/12/23 00:34:53;;;;;;;12.87;6.70;;;-1.40;99.90;;;-1.66;75.02;98379.72;173951;28;1398;-81
2021/12/23 00:34:59;;;;;;;13.32;6.68;;;-1.40;99.90;;;-1.62;74.75;98385.66;171884;28;1237;-82
2021/12/23 00:35:07;;;;;;;13.82;6.82;;;-1.40;99.90;;;-1.60;74.95;98392.53;171936;28;1003;-82
2021/12/23 00:35:13;;;;;;;13.02;6.82;;;-1.40;99.90;;;-1.73;74.75;98360.72;173290;28;1385;-82
2021/12/23 00:35:19;;;;;;;13.50;6.60;;;-1.40;99.90;;;-1.71;74.64;98368.56;172603;28;1429;-82